createdAt,value
2023-04-16T00:00:58.825Z,70.89
2023-04-16T00:03:02.041Z,70.81
2023-04-16T00:05:05.371Z,70.43
2023-04-16T00:07:08.636Z,69.62
2023-04-16T00:09:11.535Z,70.37
2023-04-16T00:11:14.440Z,71.50
2023-04-16T00:13:18.524Z,71.69
2023-04-16T00:15:21.377Z,71.40
2023-04-16T00:17:24.177Z,71.48
2023-04-16T00:19:27.059Z,70.83
2023-04-16T00:21:29.987Z,71.04
2023-04-16T00:23:32.730Z,71.57
2023-04-16T00:25:38.553Z,71.47
2023-04-16T00:27:41.370Z,71.24
2023-04-16T00:29:45.518Z,71.61
2023-04-16T00:31:48.298Z,71.75
2023-04-16T00:33:51.135Z,71.64
2023-04-16T00:35:54.180Z,71.90
2023-04-16T00:37:57.230Z,71.27
2023-04-16T00:40:00.068Z,71.68
2023-04-16T00:42:02.958Z,71.10
2023-04-16T00:44:05.912Z,70.88
2023-04-16T00:46:10.862Z,70.97
2023-04-16T00:48:14.071Z,70.89
2023-04-16T00:50:17.559Z,70.24
2023-04-16T00:52:20.830Z,70.43
2023-04-16T00:54:23.935Z,70.45
2023-04-16T00:56:26.698Z,70.98
2023-04-16T00:58:31.931Z,71.33
2023-04-16T01:00:34.762Z,71.42
2023-04-16T01:02:39.593Z,71.52
2023-04-16T01:04:42.643Z,71.70
2023-04-16T01:06:45.516Z,71.40
2023-04-16T01:08:48.887Z,71.59
2023-04-16T01:10:51.914Z,71.42
2023-04-16T01:12:55.262Z,71.43
2023-04-16T01:14:58.280Z,70.39
2023-04-16T01:17:01.574Z,71.26
2023-04-16T01:19:05.774Z,71.71
2023-04-16T01:21:09.946Z,71.53
2023-04-16T01:23:12.844Z,71.38
2023-04-16T01:25:16.779Z,71.06
2023-04-16T01:27:19.698Z,71.59
2023-04-16T01:29:22.537Z,71.73
2023-04-16T01:31:26.856Z,71.57
2023-04-16T01:33:35.838Z,71.54
2023-04-16T01:35:38.689Z,71.52
2023-04-16T01:37:42.849Z,71.46
2023-04-16T01:39:46.510Z,71.68
2023-04-16T01:41:49.320Z,71.22
2023-04-16T01:43:52.113Z,71.36
2023-04-16T01:46:10.198Z,70.67
2023-04-16T01:48:13.356Z,71.21
2023-04-16T01:50:16.222Z,71.70
2023-04-16T01:52:19.012Z,71.42
2023-04-16T01:54:23.096Z,71.45
2023-04-16T01:56:26.094Z,71.04
2023-04-16T01:58:29.547Z,70.38
2023-04-16T02:00:32.610Z,70.46
2023-04-16T02:02:36.375Z,71.46
2023-04-16T02:04:40.707Z,71.59
2023-04-16T02:06:43.588Z,72.21
2023-04-16T02:08:46.390Z,71.34
2023-04-16T02:10:52.091Z,71.76
2023-04-16T02:12:54.996Z,71.17
2023-04-16T02:14:57.758Z,71.70
2023-04-16T02:17:03.048Z,72.44
2023-04-16T02:19:12.821Z,72.36
2023-04-16T02:21:17.081Z,71.62
2023-04-16T02:23:19.921Z,71.01
2023-04-16T02:25:24.291Z,71.78
2023-04-16T02:27:31.185Z,71.15
2023-04-16T02:29:44.128Z,71.22
2023-04-16T02:31:51.068Z,71.27
2023-04-16T02:33:54.547Z,71.17
2023-04-16T02:35:57.432Z,71.33
2023-04-16T02:38:00.536Z,71.94
2023-04-16T02:40:03.388Z,70.76
2023-04-16T02:42:06.197Z,70.91
2023-04-16T02:44:10.366Z,71.17
2023-04-16T02:46:13.205Z,71.64
2023-04-16T02:48:16.014Z,71.12
2023-04-16T02:50:19.084Z,71.37
2023-04-16T02:52:22.073Z,71.54
2023-04-16T02:54:24.909Z,70.84
2023-04-16T02:56:27.732Z,71.66
2023-04-16T02:58:30.534Z,71.38
2023-04-16T03:00:34.764Z,71.66
2023-04-16T03:02:37.825Z,71.88
2023-04-16T03:04:40.908Z,71.33
2023-04-16T03:06:43.735Z,71.17
2023-04-16T03:08:46.498Z,71.17
2023-04-16T03:10:49.296Z,71.39
2023-04-16T03:12:52.137Z,71.63
2023-04-16T03:14:54.947Z,71.86
2023-04-16T03:16:59.381Z,71.96
2023-04-16T03:19:02.257Z,71.77
2023-04-16T03:21:05.773Z,72.14
2023-04-16T03:23:08.627Z,72.45
2023-04-16T03:25:11.462Z,72.40
2023-04-16T03:27:14.262Z,72.31
2023-04-16T03:29:17.123Z,72.39
2023-04-16T03:31:20.094Z,72.34
2023-04-16T03:33:24.381Z,72.02
2023-04-16T03:35:28.312Z,72.12
2023-04-16T03:37:31.291Z,71.63
2023-04-16T03:39:34.422Z,71.95
2023-04-16T03:41:37.233Z,71.82
2023-04-16T03:43:40.098Z,71.67
2023-04-16T03:45:45.363Z,71.80
2023-04-16T03:47:52.593Z,72.13
2023-04-16T03:49:59.688Z,71.71
2023-04-16T03:52:03.451Z,70.70
2023-04-16T03:54:06.265Z,71.19
2023-04-16T03:56:09.366Z,72.07
2023-04-16T03:58:12.292Z,72.37
2023-04-16T04:00:15.302Z,71.70
2023-04-16T04:02:28.249Z,71.87
2023-04-16T04:04:31.322Z,72.02
2023-04-16T04:06:35.559Z,71.99
2023-04-16T04:08:38.428Z,72.45
2023-04-16T04:10:42.013Z,70.78
2023-04-16T04:12:46.710Z,71.51
2023-04-16T04:14:49.542Z,71.65
2023-04-16T04:16:52.359Z,71.68
2023-04-16T04:18:55.598Z,72.10
2023-04-16T04:20:58.892Z,72.30
2023-04-16T04:23:06.248Z,72.36
2023-04-16T04:25:09.959Z,72.25
2023-04-16T04:27:12.783Z,72.39
2023-04-16T04:29:15.625Z,72.24
2023-04-16T04:31:18.491Z,72.35
2023-04-16T04:33:21.454Z,72.18
2023-04-16T04:35:24.362Z,72.29
2023-04-16T04:37:27.277Z,72.39
2023-04-16T04:39:31.716Z,72.19
2023-04-16T04:41:36.653Z,72.29
2023-04-16T04:43:39.888Z,71.09
2023-04-16T04:45:44.033Z,71.33
2023-04-16T04:47:46.966Z,71.64
2023-04-16T04:49:50.174Z,71.83
2023-04-16T04:51:53.123Z,71.05
2023-04-16T04:53:56.958Z,70.96
2023-04-16T04:56:09.191Z,70.99
2023-04-16T04:58:16.377Z,70.18
2023-04-16T05:00:19.652Z,71.33
2023-04-16T05:02:30.831Z,71.29
2023-04-16T05:04:33.665Z,71.57
2023-04-16T05:06:36.468Z,71.30
2023-04-16T05:08:39.284Z,70.54
2023-04-16T05:10:42.074Z,70.35
2023-04-16T05:12:48.829Z,70.48
2023-04-16T05:14:51.852Z,70.90
2023-04-16T05:16:55.053Z,71.00
2023-04-16T05:18:58.015Z,71.12
2023-04-16T05:21:00.811Z,70.01
2023-04-16T05:23:03.584Z,70.00
2023-04-16T05:25:06.985Z,70.54
2023-04-16T05:27:09.676Z,70.66
2023-04-16T05:29:13.881Z,70.13
2023-04-16T05:31:16.695Z,69.48
2023-04-16T05:33:19.510Z,69.60
2023-04-16T05:35:22.552Z,69.79
2023-04-16T05:37:25.456Z,69.60
2023-04-16T05:39:28.565Z,69.53
2023-04-16T05:41:31.368Z,69.40
2023-04-16T05:43:34.230Z,69.59
2023-04-16T05:45:40.974Z,69.65
2023-04-16T05:47:44.128Z,69.20
2023-04-16T05:49:46.935Z,68.88
2023-04-16T05:51:50.944Z,69.14
2023-04-16T05:53:54.005Z,69.52
2023-04-16T05:55:56.810Z,68.68
2023-04-16T05:57:59.592Z,69.28
2023-04-16T06:00:03.740Z,69.09
2023-04-16T06:02:16.280Z,68.35
2023-04-16T06:04:19.281Z,68.49
2023-04-16T06:06:22.200Z,68.06
2023-04-16T06:08:25.023Z,68.84
2023-04-16T06:10:28.086Z,67.76
2023-04-16T06:12:31.015Z,68.68
2023-04-16T06:14:33.848Z,68.49
2023-04-16T06:16:36.614Z,68.33
2023-04-16T06:18:40.708Z,68.51
2023-04-16T06:20:43.500Z,67.73
2023-04-16T06:22:46.343Z,68.81
2023-04-16T06:24:49.248Z,68.94
2023-04-16T06:26:52.014Z,69.08
2023-04-16T06:28:54.768Z,69.27
2023-04-16T06:30:57.705Z,68.18
2023-04-16T06:33:00.541Z,68.54
2023-04-16T06:35:05.287Z,68.42
2023-04-16T06:37:10.490Z,68.44
2023-04-16T06:39:13.562Z,68.69
2023-04-16T06:41:16.435Z,68.41
2023-04-16T06:43:19.260Z,68.69
2023-04-16T06:45:22.029Z,68.43
2023-04-16T06:47:24.874Z,68.79
2023-04-16T06:49:27.949Z,69.06
2023-04-16T06:51:32.128Z,68.85
2023-04-16T06:53:37.560Z,68.82
2023-04-16T06:55:40.338Z,68.98
2023-04-16T06:57:43.114Z,69.67
2023-04-16T06:59:46.330Z,69.63
2023-04-16T07:01:49.211Z,69.60
2023-04-16T07:03:52.800Z,68.93
2023-04-16T07:05:56.261Z,70.11
2023-04-16T07:08:00.969Z,69.02
2023-04-16T07:10:05.430Z,69.24
2023-04-16T07:12:08.423Z,69.99
2023-04-16T07:14:11.555Z,69.73
2023-04-16T07:16:14.348Z,69.38
2023-04-16T07:18:18.777Z,68.85
2023-04-16T07:20:23.746Z,69.40
2023-04-16T07:22:26.610Z,69.55
2023-04-16T07:24:30.728Z,69.90
2023-04-16T07:26:33.508Z,69.29
2023-04-16T07:28:36.386Z,69.69
2023-04-16T07:30:39.188Z,69.38
2023-04-16T07:32:41.913Z,69.66
2023-04-16T07:34:44.796Z,68.95
2023-04-16T07:36:47.577Z,68.61
2023-04-16T07:38:50.364Z,69.16
2023-04-16T07:40:54.490Z,68.84
2023-04-16T07:42:57.475Z,69.88
2023-04-16T07:45:00.291Z,69.82
2023-04-16T07:47:04.872Z,68.81
2023-04-16T07:49:08.674Z,68.66
2023-04-16T07:51:11.648Z,68.48
2023-04-16T07:53:14.502Z,67.83
2023-04-16T07:55:17.269Z,68.20
2023-04-16T07:57:21.530Z,68.60
2023-04-16T07:59:24.729Z,68.57
2023-04-16T08:01:27.877Z,68.87
2023-04-16T08:03:30.939Z,68.30
2023-04-16T08:05:33.884Z,68.52
2023-04-16T08:07:36.689Z,68.43
2023-04-16T08:09:48.759Z,68.45
2023-04-16T08:11:51.639Z,68.66
2023-04-16T08:13:55.885Z,68.50
2023-04-16T08:15:58.681Z,68.69
2023-04-16T08:18:01.547Z,68.07
2023-04-16T08:20:04.884Z,68.73
2023-04-16T08:22:07.885Z,67.80
2023-04-16T08:24:10.862Z,68.26
2023-04-16T08:26:13.713Z,67.99
2023-04-16T08:28:17.434Z,66.94
2023-04-16T08:30:22.171Z,67.67
2023-04-16T08:32:24.869Z,67.45
2023-04-16T08:34:27.685Z,67.83
2023-04-16T08:36:31.292Z,67.25
2023-04-16T08:38:34.274Z,68.32
2023-04-16T08:40:40.030Z,67.37
2023-04-16T08:42:49.630Z,67.67
2023-04-16T08:44:58.467Z,67.85
2023-04-16T08:47:02.843Z,72.01
2023-04-16T08:49:08.468Z,68.71
2023-04-16T08:51:12.911Z,67.14
2023-04-16T08:53:20.224Z,66.69
2023-04-16T08:55:27.333Z,66.58
2023-04-16T08:57:34.521Z,67.67
2023-04-16T08:59:39.158Z,67.48
2023-04-16T09:01:42.520Z,68.10
2023-04-16T09:03:48.564Z,68.70
2023-04-16T09:05:51.734Z,69.28
2023-04-16T09:07:54.788Z,70.25
2023-04-16T09:10:00.486Z,70.96
2023-04-16T09:12:03.736Z,70.64
2023-04-16T09:14:11.735Z,70.67
2023-04-16T09:16:15.548Z,70.30
2023-04-16T09:18:18.593Z,70.62
2023-04-16T09:20:22.923Z,70.96
2023-04-16T09:22:25.768Z,71.47
2023-04-16T09:24:29.938Z,70.55
2023-04-16T09:26:33.343Z,71.56
2023-04-16T09:28:43.578Z,72.07
2023-04-16T09:30:46.434Z,72.98
2023-04-16T09:32:49.862Z,72.86
2023-04-16T09:34:56.179Z,73.30
2023-04-16T09:37:15.979Z,73.67
2023-04-16T09:39:20.718Z,73.99
2023-04-16T09:41:27.285Z,74.32
2023-04-16T09:43:32.928Z,74.46
2023-04-16T09:45:49.649Z,74.53
2023-04-16T09:47:52.491Z,73.82
2023-04-16T09:50:00.127Z,74.54
2023-04-16T09:52:04.375Z,74.17
2023-04-16T09:54:07.433Z,74.50
2023-04-16T09:56:11.435Z,74.04
2023-04-16T09:58:19.776Z,74.83
2023-04-16T10:00:24.504Z,74.78
2023-04-16T10:02:28.113Z,74.93
2023-04-16T10:04:31.050Z,74.42
2023-04-16T10:06:33.805Z,74.83
2023-04-16T10:08:37.862Z,75.08
2023-04-16T10:10:41.569Z,75.73
2023-04-16T10:12:44.593Z,75.49
2023-04-16T10:14:49.467Z,75.65
2023-04-16T10:16:53.277Z,74.89
2023-04-16T10:18:57.574Z,75.50
2023-04-16T10:21:00.863Z,75.69
2023-04-16T10:23:04.230Z,75.86
2023-04-16T10:25:09.897Z,74.69
2023-04-16T10:27:12.661Z,74.90
2023-04-16T10:29:15.530Z,75.33
2023-04-16T10:31:18.625Z,75.48
2023-04-16T10:33:22.940Z,75.28
2023-04-16T10:35:26.662Z,75.49
2023-04-16T10:37:32.476Z,75.90
2023-04-16T10:39:37.310Z,74.66
2023-04-16T10:41:43.562Z,75.14
2023-04-16T10:43:48.020Z,74.34
2023-04-16T10:45:50.777Z,74.28
2023-04-16T10:47:57.011Z,74.39
2023-04-16T10:49:59.981Z,74.50
2023-04-16T10:52:13.340Z,74.55
2023-04-16T10:54:26.204Z,74.00
2023-04-16T10:56:30.487Z,74.13
2023-04-16T10:58:37.135Z,72.96
2023-04-16T11:00:50.670Z,73.41
2023-04-16T11:02:54.670Z,73.53
2023-04-16T11:04:58.612Z,73.40
2023-04-16T11:07:14.609Z,73.87
2023-04-16T11:09:51.045Z,73.06
2023-04-16T11:11:54.214Z,72.74
2023-04-16T11:13:58.412Z,71.89
2023-04-16T11:16:02.244Z,71.88
2023-04-16T11:18:06.938Z,71.71
2023-04-16T11:20:18.843Z,71.89
2023-04-16T11:22:23.202Z,71.58
2023-04-16T11:24:30.680Z,72.16
2023-04-16T11:26:33.452Z,71.59
2023-04-16T11:28:36.740Z,71.62
2023-04-16T11:30:41.633Z,71.49
2023-04-16T11:32:45.205Z,72.09
2023-04-16T11:34:48.248Z,71.28
2023-04-16T11:36:53.044Z,71.04
2023-04-16T11:39:02.312Z,71.17
2023-04-16T11:41:05.499Z,70.85
2023-04-16T11:43:15.369Z,70.88
2023-04-16T11:45:19.387Z,71.51
2023-04-16T11:47:24.456Z,71.19
2023-04-16T11:49:31.010Z,70.62
2023-04-16T11:51:33.831Z,69.86
2023-04-16T11:53:37.626Z,70.33
2023-04-16T11:55:45.661Z,70.67
2023-04-16T11:57:48.730Z,70.91
2023-04-16T12:00:01.569Z,70.73
2023-04-16T12:02:15.589Z,70.79
2023-04-16T12:04:21.283Z,70.73
2023-04-16T12:06:24.503Z,70.89
2023-04-16T12:08:31.093Z,71.31
2023-04-16T12:10:35.954Z,71.66
2023-04-16T12:12:38.604Z,71.36
2023-04-16T12:14:51.357Z,71.45
2023-04-16T12:16:55.284Z,72.11
2023-04-16T12:19:03.965Z,70.90
2023-04-16T12:21:08.206Z,70.82
2023-04-16T12:23:23.772Z,70.56
2023-04-16T12:25:26.668Z,70.51
2023-04-16T12:27:43.233Z,71.38
2023-04-16T12:29:46.174Z,70.79
2023-04-16T12:31:50.137Z,72.03
2023-04-16T12:34:03.036Z,70.57
2023-04-16T12:36:19.893Z,70.39
2023-04-16T12:38:24.551Z,70.94
2023-04-16T12:40:27.462Z,70.97
2023-04-16T12:42:35.629Z,71.12
2023-04-16T12:44:38.583Z,70.39
2023-04-16T12:46:41.988Z,71.39
2023-04-16T12:48:44.824Z,71.39
2023-04-16T12:50:48.061Z,70.82
2023-04-16T12:52:52.453Z,71.22
2023-04-16T12:54:55.379Z,71.63
2023-04-16T12:56:58.246Z,71.52
2023-04-16T12:59:01.140Z,71.31
2023-04-16T13:01:03.962Z,71.80
2023-04-16T13:03:07.217Z,71.86
2023-04-16T13:05:10.445Z,71.81
2023-04-16T13:07:13.282Z,71.99
2023-04-16T13:09:18.136Z,71.63
2023-04-16T13:11:21.490Z,70.56
2023-04-16T13:13:24.268Z,70.61
2023-04-16T13:15:27.050Z,69.13
2023-04-16T13:17:31.172Z,69.51
2023-04-16T13:19:33.954Z,70.49
2023-04-16T13:21:36.786Z,70.35
2023-04-16T13:23:39.610Z,69.64
2023-04-16T13:25:43.751Z,69.47
2023-04-16T13:27:46.551Z,69.60
2023-04-16T13:29:49.394Z,69.64
2023-04-16T13:31:52.340Z,69.34
2023-04-16T13:33:55.716Z,69.22
2023-04-16T13:35:58.582Z,69.95
2023-04-16T13:38:01.381Z,69.70
2023-04-16T13:40:04.394Z,70.02
2023-04-16T13:42:08.585Z,70.01
2023-04-16T13:44:11.334Z,70.62
2023-04-16T13:46:14.178Z,70.78
2023-04-16T13:48:17.790Z,70.58
2023-04-16T13:50:20.803Z,70.90
2023-04-16T13:52:23.581Z,71.01
2023-04-16T13:54:26.429Z,69.44
2023-04-16T13:56:29.334Z,69.02
2023-04-16T13:58:33.801Z,70.02
2023-04-16T14:00:36.655Z,69.88
2023-04-16T14:02:39.765Z,70.51
2023-04-16T14:04:42.696Z,70.44
2023-04-16T14:06:45.480Z,70.43
2023-04-16T14:08:48.335Z,70.53
2023-04-16T14:10:51.729Z,70.67
2023-04-16T14:13:13.318Z,70.55
2023-04-16T14:15:17.440Z,70.84
2023-04-16T14:17:20.372Z,70.63
2023-04-16T14:19:23.213Z,70.76
2023-04-16T14:21:26.976Z,70.08
2023-04-16T14:23:29.774Z,70.20
2023-04-16T14:25:32.673Z,68.91
2023-04-16T14:27:35.831Z,68.74
2023-04-16T14:29:39.036Z,68.58
2023-04-16T14:31:43.261Z,68.82
2023-04-16T14:33:46.267Z,69.01
2023-04-16T14:35:50.231Z,69.33
2023-04-16T14:37:53.262Z,68.81
2023-04-16T14:39:56.428Z,68.75
2023-04-16T14:41:59.332Z,68.94
2023-04-16T14:44:04.129Z,69.42
2023-04-16T14:46:07.042Z,69.18
2023-04-16T14:48:11.254Z,69.51
2023-04-16T14:50:14.691Z,69.10
2023-04-16T14:52:17.811Z,69.21
2023-04-16T14:54:20.961Z,69.15
2023-04-16T14:56:23.910Z,69.38
2023-04-16T14:58:27.081Z,69.64
2023-04-16T15:00:29.893Z,68.85
2023-04-16T15:02:32.808Z,68.55
2023-04-16T15:04:37.728Z,69.22
2023-04-16T15:06:40.660Z,69.20
2023-04-16T15:08:43.474Z,70.04
2023-04-16T15:10:46.298Z,69.37
2023-04-16T15:12:49.097Z,69.14
2023-04-16T15:14:51.960Z,69.87
2023-04-16T15:16:54.904Z,69.95
2023-04-16T15:18:57.826Z,69.72
2023-04-16T15:21:02.023Z,70.42
2023-04-16T15:23:04.900Z,70.23
2023-04-16T15:25:08.619Z,70.77
2023-04-16T15:27:12.438Z,70.03
2023-04-16T15:29:15.744Z,70.66
2023-04-16T15:31:20.666Z,70.45
2023-04-16T15:33:23.635Z,70.29
2023-04-16T15:35:26.491Z,70.56
2023-04-16T15:37:30.847Z,70.31
2023-04-16T15:39:33.657Z,70.43
2023-04-16T15:41:46.945Z,70.51
2023-04-16T15:44:00.210Z,70.38
2023-04-16T15:46:03.224Z,69.72
2023-04-16T15:48:09.104Z,69.95
2023-04-16T15:50:12.288Z,69.91
2023-04-16T15:52:15.390Z,69.44
2023-04-16T15:54:20.048Z,69.44
2023-04-16T15:56:22.898Z,69.58
2023-04-16T15:58:26.077Z,68.60
2023-04-16T16:00:29.826Z,68.88
2023-04-16T16:02:32.790Z,69.24
2023-04-16T16:04:35.968Z,68.37
2023-04-16T16:06:38.945Z,69.06
2023-04-16T16:08:43.565Z,69.53
2023-04-16T16:10:47.763Z,69.02
2023-04-16T16:12:51.713Z,69.39
2023-04-16T16:14:54.968Z,70.21
2023-04-16T16:16:57.787Z,69.99
2023-04-16T16:19:00.720Z,68.79
2023-04-16T16:21:03.535Z,68.80
2023-04-16T16:23:06.364Z,68.56
2023-04-16T16:25:10.249Z,68.89
2023-04-16T16:27:14.464Z,68.98
2023-04-16T16:29:19.505Z,68.86
2023-04-16T16:31:22.344Z,68.48
2023-04-16T16:33:25.315Z,68.75
2023-04-16T16:35:28.211Z,69.08
2023-04-16T16:37:31.099Z,69.38
2023-04-16T16:39:35.216Z,69.47
2023-04-16T16:41:41.944Z,69.45
2023-04-16T16:43:46.124Z,69.48
2023-04-16T16:45:48.994Z,69.33
2023-04-16T16:47:51.830Z,69.01
2023-04-16T16:49:54.637Z,69.40
2023-04-16T16:51:57.522Z,68.74
2023-04-16T16:54:00.287Z,69.30
2023-04-16T16:56:03.018Z,69.75
2023-04-16T16:58:06.215Z,69.03
2023-04-16T17:00:15.130Z,69.47
2023-04-16T17:02:17.988Z,69.30
2023-04-16T17:04:21.043Z,69.41
2023-04-16T17:06:24.024Z,69.80
2023-04-16T17:08:26.836Z,70.26
2023-04-16T17:10:29.939Z,70.14
2023-04-16T17:12:32.766Z,70.11
2023-04-16T17:14:35.908Z,70.69
2023-04-16T17:16:40.297Z,70.62
2023-04-16T17:18:43.428Z,71.12
2023-04-16T17:20:46.193Z,70.73
2023-04-16T17:22:49.020Z,70.94
2023-04-16T17:24:51.816Z,70.64
2023-04-16T17:26:55.095Z,70.79
2023-04-16T17:28:59.225Z,70.55
2023-04-16T17:31:03.456Z,70.80
2023-04-16T17:33:07.721Z,70.66
2023-04-16T17:35:10.968Z,69.91
2023-04-16T17:37:14.065Z,69.52
2023-04-16T17:39:17.153Z,69.77
2023-04-16T17:41:21.024Z,70.38
2023-04-16T17:43:24.032Z,70.52
2023-04-16T17:45:26.831Z,70.49
2023-04-16T17:47:29.808Z,69.76
2023-04-16T17:49:33.915Z,70.59
2023-04-16T17:51:36.709Z,70.88
2023-04-16T17:53:39.564Z,70.33
2023-04-16T17:55:50.971Z,70.41
2023-04-16T17:57:53.791Z,69.17
2023-04-16T17:59:56.645Z,69.36
2023-04-16T18:01:59.610Z,69.66
2023-04-16T18:04:02.697Z,69.04
2023-04-16T18:06:07.097Z,69.39
2023-04-16T18:08:09.883Z,69.48
2023-04-16T18:10:12.683Z,69.38
2023-04-16T18:12:16.285Z,68.88
2023-04-16T18:14:21.214Z,69.50
2023-04-16T18:16:24.112Z,69.52
2023-04-16T18:18:27.116Z,69.50
2023-04-16T18:20:30.032Z,69.69
2023-04-16T18:22:34.203Z,69.60
2023-04-16T18:24:37.229Z,70.00
2023-04-16T18:26:41.278Z,70.00
2023-04-16T18:28:44.192Z,70.49
2023-04-16T18:30:49.560Z,69.88
2023-04-16T18:33:16.572Z,70.60
2023-04-16T18:35:15.377Z,70.13
2023-04-16T18:37:18.274Z,70.62
2023-04-16T18:39:24.608Z,69.92
2023-04-16T18:41:29.622Z,69.70
2023-04-16T18:43:32.582Z,69.93
2023-04-16T18:45:36.088Z,70.07
2023-04-16T18:47:39.878Z,70.34
2023-04-16T18:49:42.807Z,70.62
2023-04-16T18:51:45.611Z,70.38
2023-04-16T18:53:48.432Z,70.90
2023-04-16T18:55:55.277Z,71.16
2023-04-16T18:57:58.110Z,70.46
2023-04-16T19:00:00.916Z,70.23
2023-04-16T19:02:03.943Z,70.57
2023-04-16T19:04:06.881Z,70.74
2023-04-16T19:06:09.797Z,71.06
2023-04-16T19:08:12.581Z,71.02
2023-04-16T19:10:15.352Z,70.53
2023-04-16T19:12:19.823Z,71.10
2023-04-16T19:14:22.780Z,71.27
2023-04-16T19:16:25.911Z,71.02
2023-04-16T19:18:28.813Z,70.64
2023-04-16T19:20:34.919Z,71.28
2023-04-16T19:22:37.715Z,71.23
2023-04-16T19:24:40.572Z,71.09
2023-04-16T19:26:43.357Z,71.11
2023-04-16T19:28:47.460Z,71.06
2023-04-16T19:30:51.311Z,71.62
2023-04-16T19:32:55.506Z,71.14
2023-04-16T19:34:58.519Z,71.50
2023-04-16T19:37:01.286Z,71.85
2023-04-16T19:39:04.848Z,71.62
2023-04-16T19:41:07.655Z,71.87
2023-04-16T19:43:10.451Z,71.05
2023-04-16T19:45:14.687Z,70.86
2023-04-16T19:47:17.561Z,71.01
2023-04-16T19:49:20.353Z,71.65
2023-04-16T19:51:23.158Z,71.63
2023-04-16T19:53:25.929Z,70.73
2023-04-16T19:55:28.681Z,71.03
2023-04-16T19:57:31.560Z,71.50
2023-04-16T19:59:34.462Z,71.49
2023-04-16T20:03:41.308Z,70.99
2023-04-16T20:05:44.182Z,71.23
2023-04-16T20:07:47.007Z,71.69
2023-04-16T20:09:49.752Z,70.80
2023-04-16T20:11:52.551Z,70.64
2023-04-16T20:13:56.110Z,70.49
2023-04-16T20:15:58.897Z,70.93
2023-04-16T20:18:03.056Z,70.71
2023-04-16T20:20:09.949Z,70.90
2023-04-16T20:22:12.755Z,70.83
2023-04-16T20:24:15.593Z,70.48
2023-04-16T20:26:18.628Z,70.96
2023-04-16T20:28:22.051Z,70.64
2023-04-16T20:30:29.041Z,70.70
2023-04-16T20:32:31.830Z,71.19
2023-04-16T20:34:36.488Z,71.21
2023-04-16T20:36:39.259Z,70.63
2023-04-16T20:38:43.531Z,70.67
2023-04-16T20:40:46.998Z,71.48
2023-04-16T20:42:51.992Z,70.78
2023-04-16T20:44:56.491Z,71.07
2023-04-16T20:46:59.983Z,71.06
2023-04-16T20:49:02.794Z,70.22
2023-04-16T20:51:09.337Z,71.10
2023-04-16T20:53:12.996Z,70.66
2023-04-16T20:55:16.155Z,70.68
2023-04-16T20:57:18.973Z,70.33
2023-04-16T20:59:21.816Z,71.19
2023-04-16T21:01:24.625Z,70.37
2023-04-16T21:03:27.723Z,70.41
2023-04-16T21:05:30.834Z,70.96
2023-04-16T21:07:34.944Z,69.92
2023-04-16T21:09:37.698Z,70.67
2023-04-16T21:11:40.564Z,70.07
2023-04-16T21:13:43.455Z,70.03
2023-04-16T21:15:46.423Z,70.41
2023-04-16T21:17:49.357Z,70.69
2023-04-16T21:19:52.171Z,70.12
2023-04-16T21:21:54.983Z,70.10
2023-04-16T21:23:59.328Z,70.31
2023-04-16T21:26:02.144Z,69.71
2023-04-16T21:28:05.156Z,69.64
2023-04-16T21:30:09.471Z,70.43
2023-04-16T21:32:12.254Z,70.80
2023-04-16T21:34:15.025Z,70.08
2023-04-16T21:36:17.782Z,70.50
2023-04-16T21:38:21.053Z,70.54
2023-04-16T21:40:25.314Z,70.31
2023-04-16T21:42:28.161Z,70.10
2023-04-16T21:44:30.957Z,71.09
2023-04-16T21:46:33.813Z,71.15
2023-04-16T21:48:36.608Z,71.37
2023-04-16T21:50:39.921Z,70.60
2023-04-16T21:52:46.414Z,70.89
2023-04-16T21:54:49.137Z,70.84
2023-04-16T21:56:53.301Z,70.41
2023-04-16T21:58:56.129Z,70.91
2023-04-16T22:00:58.916Z,69.97
2023-04-16T22:03:01.952Z,70.41
2023-04-16T22:05:05.164Z,71.38
2023-04-16T22:07:09.743Z,70.59
2023-04-16T22:09:12.540Z,70.48
2023-04-16T22:11:15.450Z,70.68
2023-04-16T22:13:19.577Z,71.15
2023-04-16T22:15:22.390Z,70.96
2023-04-16T22:17:27.544Z,71.58
2023-04-16T22:19:30.537Z,71.18
2023-04-16T22:21:33.315Z,70.86
2023-04-16T22:23:36.098Z,71.60
2023-04-16T22:25:39.289Z,70.95
2023-04-16T22:27:42.066Z,72.00
2023-04-16T22:29:46.272Z,70.76
2023-04-16T22:31:49.126Z,71.49
2023-04-16T22:33:51.955Z,71.05
2023-04-16T22:35:54.720Z,71.18
2023-04-16T22:37:57.688Z,71.26
2023-04-16T22:40:00.640Z,70.68
2023-04-16T22:42:03.473Z,71.92
2023-04-16T22:44:06.294Z,71.48
2023-04-16T22:46:10.421Z,71.16
2023-04-16T22:48:13.307Z,71.21
2023-04-16T22:50:16.130Z,70.91
2023-04-16T22:52:18.918Z,71.13
2023-04-16T22:54:21.721Z,72.42
2023-04-16T22:56:28.569Z,72.62
2023-04-16T22:58:31.492Z,71.88
2023-04-16T23:00:34.320Z,72.48
2023-04-16T23:02:38.623Z,71.57
2023-04-16T23:04:41.504Z,72.75
2023-04-16T23:06:44.474Z,73.00
2023-04-16T23:08:47.333Z,72.21
2023-04-16T23:10:50.390Z,72.82
2023-04-16T23:12:53.546Z,71.87
2023-04-16T23:14:56.861Z,72.56
2023-04-16T23:16:59.810Z,71.91
2023-04-16T23:19:03.917Z,72.83
2023-04-16T23:21:06.995Z,72.80
2023-04-16T23:23:09.860Z,72.72
2023-04-16T23:25:12.685Z,72.92
2023-04-16T23:27:15.531Z,72.08
2023-04-16T23:29:18.269Z,73.04
2023-04-16T23:31:21.094Z,72.59
2023-04-16T23:33:24.116Z,72.67
2023-04-16T23:35:28.223Z,72.60
2023-04-16T23:37:30.984Z,73.38
2023-04-16T23:39:33.930Z,72.30
2023-04-16T23:41:36.713Z,72.96
2023-04-16T23:43:40.633Z,72.79
2023-04-16T23:45:44.750Z,72.99
2023-04-16T23:47:47.664Z,73.33
2023-04-16T23:49:50.694Z,72.78
2023-04-16T23:51:54.794Z,73.18
2023-04-16T23:53:57.611Z,72.69
2023-04-16T23:56:00.393Z,72.74
2023-04-16T23:58:04.333Z,72.92
